createdAt,value
2016-09-28T00:00:00.512Z,0
2016-09-28T00:01:10.796Z,0
2016-09-28T00:02:20.772Z,0
2016-09-28T00:03:31.081Z,0
2016-09-28T00:04:41.083Z,0
2016-09-28T00:05:51.397Z,0
2016-09-28T00:07:01.730Z,0
2016-09-28T00:08:11.396Z,0
2016-09-28T00:09:21.068Z,0
2016-09-28T00:10:30.461Z,0
2016-09-28T00:11:40.436Z,0
2016-09-28T00:12:50.114Z,0
2016-09-28T00:14:00.100Z,0
2016-09-28T00:15:10.406Z,0
2016-09-28T00:16:20.694Z,0
2016-09-28T00:17:30.393Z,0
2016-09-28T00:18:40.394Z,0
2016-09-28T00:19:50.667Z,0
2016-09-28T00:21:00.330Z,0
2016-09-28T00:22:10.311Z,0
2016-09-28T00:23:20.613Z,0
2016-09-28T00:24:30.901Z,0
2016-09-28T00:25:40.581Z,0
2016-09-28T00:26:50.910Z,0
2016-09-28T00:28:01.218Z,0
2016-09-28T00:29:11.506Z,0
2016-09-28T00:30:21.523Z,0
2016-09-28T00:31:31.823Z,0
2016-09-28T00:32:41.177Z,0
2016-09-28T00:33:50.857Z,0
2016-09-28T00:35:00.529Z,0
2016-09-28T00:36:10.812Z,0
2016-09-28T00:37:20.806Z,0
2016-09-28T00:38:31.097Z,0
2016-09-28T00:39:41.093Z,0
2016-09-28T00:40:51.063Z,0
2016-09-28T00:42:01.054Z,0
2016-09-28T00:43:10.726Z,0
2016-09-28T00:44:20.719Z,0
2016-09-28T00:45:30.705Z,0
2016-09-28T00:46:40.998Z,0
2016-09-28T00:47:50.974Z,0
2016-09-28T00:49:01.269Z,0
2016-09-28T00:50:11.255Z,0
2016-09-28T00:51:21.536Z,0
2016-09-28T00:52:31.510Z,0
2016-09-28T00:53:41.804Z,0
2016-09-28T00:54:51.795Z,0
2016-09-28T00:56:01.767Z,0
2016-09-28T00:57:11.753Z,0
2016-09-28T00:58:22.065Z,0
2016-09-28T00:59:32.045Z,0
2016-09-28T01:00:42.011Z,0
2016-09-28T01:01:52.297Z,0
2016-09-28T01:03:02.579Z,0
2016-09-28T01:04:12.886Z,0
2016-09-28T01:05:23.180Z,0
2016-09-28T01:06:33.487Z,0
2016-09-28T01:07:43.470Z,0
2016-09-28T01:08:53.753Z,0
2016-09-28T01:10:04.054Z,0
2016-09-28T01:11:14.341Z,0
2016-09-28T01:12:24.310Z,0
2016-09-28T01:13:34.291Z,0
2016-09-28T01:14:44.565Z,0
2016-09-28T01:15:54.253Z,0
2016-09-28T01:17:04.227Z,0
2016-09-28T01:18:14.535Z,0
2016-09-28T01:19:24.817Z,0
2016-09-28T01:20:35.110Z,0
2016-09-28T01:21:45.404Z,0
2016-09-28T01:22:55.689Z,0
2016-09-28T01:24:05.975Z,0
2016-09-28T01:25:16.264Z,0
2016-09-28T01:26:25.938Z,0
2016-09-28T01:27:35.595Z,0
2016-09-28T01:28:45.570Z,0
2016-09-28T01:29:55.551Z,0
2016-09-28T01:31:05.224Z,0
2016-09-28T01:32:15.204Z,0
2016-09-28T01:33:25.487Z,0
2016-09-28T01:34:35.458Z,0
2016-09-28T01:35:45.431Z,0
2016-09-28T01:36:55.738Z,0
2016-09-28T01:38:05.098Z,0
2016-09-28T01:39:15.066Z,0
2016-09-28T01:40:24.718Z,0
2016-09-28T01:41:34.683Z,0
2016-09-28T01:42:44.975Z,0
2016-09-28T01:43:54.953Z,0
2016-09-28T01:45:05.242Z,0
2016-09-28T01:46:15.510Z,0
2016-09-28T01:47:25.488Z,0
2016-09-28T01:48:34.843Z,0
2016-09-28T01:49:44.206Z,0
2016-09-28T01:50:53.893Z,0
2016-09-28T01:52:04.178Z,0
2016-09-28T01:53:14.464Z,0
2016-09-28T01:54:24.755Z,0
2016-09-28T01:55:34.722Z,0
2016-09-28T01:56:45.001Z,0
2016-09-28T01:57:54.978Z,0
2016-09-28T01:59:05.253Z,0
2016-09-28T02:00:15.226Z,0
2016-09-28T02:01:24.917Z,0
2016-09-28T02:02:34.890Z,0
2016-09-28T02:03:44.879Z,0
2016-09-28T02:04:55.155Z,0
2016-09-28T02:06:04.829Z,0
2016-09-28T02:07:15.114Z,0
2016-09-28T02:08:25.085Z,0
2016-09-28T02:09:35.072Z,0
2016-09-28T02:10:45.356Z,0
2016-09-28T02:11:55.642Z,0
2016-09-28T02:13:05.604Z,0
2016-09-28T02:14:15.275Z,0
2016-09-28T02:15:24.646Z,0
2016-09-28T02:16:34.932Z,0
2016-09-28T02:17:45.240Z,0
2016-09-28T02:18:55.539Z,0
2016-09-28T02:20:05.547Z,0
2016-09-28T02:21:15.229Z,0
2016-09-28T02:22:25.516Z,0
2016-09-28T02:23:35.498Z,0
2016-09-28T02:24:45.470Z,0
2016-09-28T02:25:55.759Z,0
2016-09-28T02:27:05.757Z,0
2016-09-28T02:28:15.737Z,0
2016-09-28T02:29:25.713Z,0
2016-09-28T02:30:36.006Z,0
2016-09-28T02:31:46.006Z,0
2016-09-28T02:32:56.285Z,0
2016-09-28T02:34:06.278Z,0
2016-09-28T02:35:16.256Z,0
2016-09-28T02:36:26.571Z,0
2016-09-28T02:37:36.549Z,0
2016-09-28T02:38:46.834Z,0
2016-09-28T02:39:56.802Z,0
2016-09-28T02:41:07.093Z,0
2016-09-28T02:42:17.079Z,0
2016-09-28T02:43:27.356Z,0
2016-09-28T02:44:37.345Z,0
2016-09-28T02:45:47.015Z,0
2016-09-28T02:46:57.292Z,0
2016-09-28T02:48:07.585Z,0
2016-09-28T02:49:17.582Z,0
2016-09-28T02:50:27.883Z,0
2016-09-28T02:51:38.163Z,0
2016-09-28T02:52:48.447Z,0
2016-09-28T02:53:58.737Z,0
2016-09-28T02:55:08.707Z,0
2016-09-28T02:56:18.989Z,0
2016-09-28T02:57:29.277Z,0
2016-09-28T02:58:39.573Z,0
2016-09-28T02:59:49.855Z,0
2016-09-28T03:01:00.138Z,0
2016-09-28T03:32:47.161Z,0
2016-09-28T03:33:57.130Z,0
2016-09-28T03:35:07.392Z,0
2016-09-28T03:36:17.061Z,0
2016-09-28T03:37:27.031Z,0
2016-09-28T03:38:37.010Z,0
2016-09-28T03:39:46.680Z,0
2016-09-28T03:40:56.657Z,0
2016-09-28T03:42:06.629Z,0
2016-09-28T03:43:16.306Z,0
2016-09-28T03:44:26.281Z,0
2016-09-28T03:45:36.558Z,0
2016-09-28T03:46:46.862Z,0
2016-09-28T03:47:56.526Z,0
2016-09-28T03:49:06.204Z,0
2016-09-28T03:50:16.179Z,0
2016-09-28T03:51:26.152Z,0
2016-09-28T03:52:35.821Z,0
2016-09-28T03:53:46.112Z,0
2016-09-28T03:54:56.089Z,0
2016-09-28T03:56:06.383Z,0
2016-09-28T03:57:16.046Z,0
2016-09-28T03:58:26.312Z,0
2016-09-28T03:59:36.303Z,0
2016-09-28T04:00:46.596Z,0
2016-09-28T04:01:56.572Z,0
2016-09-28T04:03:06.548Z,0
2016-09-28T04:04:16.218Z,0
2016-09-28T04:05:26.199Z,0
2016-09-28T04:06:36.490Z,0
2016-09-28T04:07:46.465Z,0
2016-09-28T04:08:56.771Z,0
2016-09-28T04:10:07.062Z,0
2016-09-28T04:11:17.046Z,0
2016-09-28T04:12:27.325Z,0
2016-09-28T04:13:37.309Z,4
2016-09-28T04:14:47.286Z,0
2016-09-28T04:15:56.635Z,4
2016-09-28T04:17:06.297Z,4
2016-09-28T04:18:16.594Z,0
2016-09-28T04:19:26.877Z,0
2016-09-28T04:20:36.873Z,4
2016-09-28T04:21:46.860Z,4
2016-09-28T04:22:57.144Z,4
2016-09-28T04:24:07.121Z,4
2016-09-28T04:25:17.107Z,4
2016-09-28T04:26:26.777Z,8
2016-09-28T04:27:36.434Z,4
2016-09-28T04:28:46.425Z,8
2016-09-28T04:29:56.401Z,8
2016-09-28T04:31:06.379Z,16
2016-09-28T04:32:16.346Z,12
2016-09-28T04:33:26.313Z,20
2016-09-28T04:34:36.601Z,24
2016-09-28T04:35:46.576Z,28
2016-09-28T04:36:56.562Z,32
2016-09-28T04:38:06.534Z,36
2016-09-28T04:39:16.508Z,44
2016-09-28T04:40:26.804Z,52
2016-09-28T04:41:37.095Z,64
2016-09-28T04:42:47.380Z,72
2016-09-28T04:43:57.658Z,88
2016-09-28T04:45:07.656Z,100
2016-09-28T04:46:17.328Z,112
2016-09-28T04:47:27.614Z,128
2016-09-28T04:48:37.916Z,140
2016-09-28T04:49:47.579Z,160
2016-09-28T04:50:57.248Z,176
2016-09-28T04:52:07.535Z,192
2016-09-28T04:53:17.529Z,212
2016-09-28T04:54:27.526Z,236
2016-09-28T04:55:37.491Z,260
2016-09-28T04:56:47.791Z,284
2016-09-28T04:57:58.070Z,308
2016-09-28T04:59:08.069Z,336
2016-09-28T05:00:18.367Z,364
2016-09-28T05:01:28.344Z,392
2016-09-28T05:02:38.631Z,424
2016-09-28T05:03:48.917Z,452
2016-09-28T05:04:59.223Z,480
2016-09-28T05:06:08.918Z,516
2016-09-28T05:07:18.268Z,552
2016-09-28T05:08:28.559Z,592
2016-09-28T05:09:38.550Z,636
2016-09-28T05:10:48.523Z,680
2016-09-28T05:11:58.522Z,728
2016-09-28T05:13:08.811Z,776
2016-09-28T05:14:18.788Z,820
2016-09-28T05:15:29.068Z,868
2016-09-28T05:16:39.035Z,912
2016-09-28T05:17:49.317Z,956
2016-09-28T05:18:58.983Z,1000
2016-09-28T05:20:09.270Z,1044
2016-09-28T05:21:19.262Z,1092
2016-09-28T05:22:29.264Z,1132
2016-09-28T05:23:39.180Z,1176
2016-09-28T05:24:49.472Z,1208
2016-09-28T05:25:59.130Z,1248
2016-09-28T05:27:08.806Z,1280
2016-09-28T05:28:18.787Z,1308
2016-09-28T05:29:29.063Z,1336
2016-09-28T05:30:39.050Z,1364
2016-09-28T05:31:48.734Z,1400
2016-09-28T05:32:59.020Z,1440
2016-09-28T05:34:09.311Z,1488
2016-09-28T05:35:19.596Z,1536
2016-09-28T05:36:29.874Z,1580
2016-09-28T05:37:39.881Z,1620
2016-09-28T05:38:50.168Z,1656
2016-09-28T05:40:00.158Z,1704
2016-09-28T05:41:10.135Z,1740
2016-09-28T05:42:20.408Z,1788
2016-09-28T05:43:30.078Z,1820
2016-09-28T05:44:40.363Z,1804
2016-09-28T05:45:50.658Z,1876
2016-09-28T05:47:00.934Z,1980
2016-09-28T05:48:10.918Z,2064
2016-09-28T05:49:21.217Z,2124
2016-09-28T05:50:31.504Z,2176
2016-09-28T05:51:41.776Z,2228
2016-09-28T05:52:52.062Z,2264
2016-09-28T05:54:02.344Z,2304
2016-09-28T05:55:12.337Z,2344
2016-09-28T05:56:22.632Z,2392
2016-09-28T05:57:32.615Z,2436
2016-09-28T05:58:42.606Z,2480
2016-09-28T05:59:52.573Z,2524
2016-09-28T06:01:02.553Z,2556
2016-09-28T06:02:12.536Z,2628
2016-09-28T06:03:22.818Z,2684
2016-09-28T06:04:32.798Z,2744
2016-09-28T06:05:42.767Z,2804
2016-09-28T06:06:53.064Z,2868
2016-09-28T06:08:03.050Z,2928
2016-09-28T06:09:13.340Z,2980
2016-09-28T06:10:23.307Z,3032
2016-09-28T06:11:33.284Z,3068
2016-09-28T06:12:42.956Z,3104
2016-09-28T06:13:52.928Z,3164
2016-09-28T06:15:02.619Z,3196
2016-09-28T06:16:12.906Z,3204
2016-09-28T06:17:22.888Z,3176
2016-09-28T06:18:33.184Z,3228
2016-09-28T06:19:43.462Z,3300
2016-09-28T06:20:53.748Z,3428
2016-09-28T06:22:03.715Z,3608
2016-09-28T06:23:13.079Z,3660
2016-09-28T06:24:23.357Z,3700
2016-09-28T06:25:33.029Z,3744
2016-09-28T06:26:43.023Z,3780
2016-09-28T06:27:52.688Z,3828
2016-09-28T06:29:02.053Z,3872
2016-09-28T06:30:12.016Z,3932
2016-09-28T06:31:21.689Z,3964
2016-09-28T06:32:31.980Z,3992
2016-09-28T06:33:42.267Z,4120
2016-09-28T06:34:51.927Z,4204
2016-09-28T06:36:01.611Z,4224
2016-09-28T06:37:11.907Z,4276
2016-09-28T06:38:22.213Z,4344
2016-09-28T06:39:32.204Z,4440
2016-09-28T06:40:42.186Z,4460
2016-09-28T06:41:52.165Z,4528
2016-09-28T06:43:02.458Z,4636
2016-09-28T06:44:12.450Z,4672
2016-09-28T06:45:22.738Z,4692
2016-09-28T06:46:32.744Z,4704
2016-09-28T06:47:43.046Z,4404
2016-09-28T06:48:53.023Z,4800
2016-09-28T06:50:03.335Z,4836
2016-09-28T06:51:13.623Z,4736
2016-09-28T06:52:23.925Z,4320
2016-09-28T06:53:33.907Z,4444
2016-09-28T06:54:43.273Z,4504
2016-09-28T06:55:52.948Z,4552
2016-09-28T06:57:02.619Z,4668
2016-09-28T06:58:12.931Z,4776
2016-09-28T06:59:22.924Z,5104
2016-09-28T07:00:33.226Z,5052
2016-09-28T07:01:43.207Z,5244
2016-09-28T07:02:53.489Z,5176
2016-09-28T07:04:03.468Z,5276
2016-09-28T07:05:13.762Z,5260
2016-09-28T07:06:24.066Z,5276
2016-09-28T07:07:34.071Z,5164
2016-09-28T07:08:44.071Z,4720
2016-09-28T07:09:54.361Z,5016
2016-09-28T07:11:04.047Z,5168
2016-09-28T07:12:14.028Z,5248
2016-09-28T07:13:24.010Z,5344
2016-09-28T07:14:33.992Z,5348
2016-09-28T07:15:43.977Z,5224
2016-09-28T07:16:53.965Z,5052
2016-09-28T07:18:03.331Z,4816
2016-09-28T07:19:13.622Z,4640
2016-09-28T07:20:23.604Z,4888
2016-09-28T07:21:33.903Z,5144
2016-09-28T07:22:43.888Z,5560
2016-09-28T07:23:54.165Z,5624
2016-09-28T07:25:04.136Z,5784
2016-09-28T07:26:14.108Z,5552
2016-09-28T07:27:24.090Z,5744
2016-09-28T07:28:34.087Z,5860
2016-09-28T07:29:44.394Z,6108
2016-09-28T07:30:54.079Z,6156
2016-09-28T07:32:03.752Z,6228
2016-09-28T07:33:13.730Z,6520
2016-09-28T07:34:23.125Z,6552
2016-09-28T07:35:33.098Z,6640
2016-09-28T07:36:43.373Z,6380
2016-09-28T07:37:53.349Z,6704
2016-09-28T07:39:03.056Z,6816
2016-09-28T07:40:13.039Z,6816
2016-09-28T07:41:23.061Z,6636
2016-09-28T07:42:32.732Z,6284
2016-09-28T07:43:42.719Z,6608
2016-09-28T07:44:53.036Z,6616
2016-09-28T07:46:03.028Z,6884
2016-09-28T07:47:13.021Z,7136
2016-09-28T07:48:23.311Z,6984
2016-09-28T07:49:33.607Z,7172
2016-09-28T07:50:43.591Z,7204
2016-09-28T07:51:53.271Z,7384
2016-09-28T07:53:02.950Z,7228
2016-09-28T07:54:12.933Z,7356
2016-09-28T07:55:23.242Z,7368
2016-09-28T07:56:33.538Z,7248
2016-09-28T07:57:43.214Z,7156
2016-09-28T07:58:53.497Z,7088
2016-09-28T08:00:03.483Z,7056
2016-09-28T08:01:13.159Z,6968
2016-09-28T08:02:23.457Z,6804
2016-09-28T08:03:33.782Z,6568
2016-09-28T08:04:44.069Z,6376
2016-09-28T08:05:53.767Z,6176
2016-09-28T08:07:04.055Z,6076
2016-09-28T08:08:14.059Z,6220
2016-09-28T08:09:24.042Z,6128
2016-09-28T08:10:33.722Z,5900
2016-09-28T08:11:43.710Z,5992
2016-09-28T08:12:53.705Z,6232
2016-09-28T08:14:03.983Z,6664
2016-09-28T08:15:13.665Z,5892
2016-09-28T08:16:23.650Z,6228
2016-09-28T08:17:33.635Z,6172
2016-09-28T08:18:43.936Z,6016
2016-09-28T08:19:53.616Z,5732
2016-09-28T08:21:03.616Z,5620
2016-09-28T08:22:13.916Z,5788
2016-09-28T08:23:24.226Z,5980
2016-09-28T08:24:34.204Z,6384
2016-09-28T08:25:44.496Z,6280
2016-09-28T08:26:54.487Z,6812
2016-09-28T08:28:04.151Z,6980
2016-09-28T08:29:14.451Z,6952
2016-09-28T08:30:24.430Z,6704
2016-09-28T08:31:33.797Z,6824
2016-09-28T08:32:43.470Z,7092
2016-09-28T08:33:53.450Z,6796
2016-09-28T08:35:03.744Z,6856
2016-09-28T08:36:14.057Z,6820
2016-09-28T08:37:24.052Z,7036
2016-09-28T08:38:34.349Z,7440
2016-09-28T08:39:44.621Z,7248
2016-09-28T08:40:54.937Z,7508
2016-09-28T08:42:04.929Z,7276
2016-09-28T08:43:15.230Z,6604
2016-09-28T08:44:24.599Z,6160
2016-09-28T08:45:34.588Z,7504
2016-09-28T08:46:44.573Z,7724
2016-09-28T08:47:54.598Z,7816
2016-09-28T08:49:04.575Z,7796
2016-09-28T08:50:14.253Z,7792
2016-09-28T08:51:24.267Z,8260
2016-09-28T08:52:33.941Z,8500
2016-09-28T08:53:43.652Z,8476
2016-09-28T08:54:53.940Z,8336
2016-09-28T08:56:03.625Z,7992
2016-09-28T08:57:13.313Z,7800
2016-09-28T08:58:23.316Z,8144
2016-09-28T08:59:33.606Z,8552
2016-09-28T09:00:43.598Z,8484
2016-09-28T09:01:53.907Z,8124
2016-09-28T09:03:04.206Z,8872
2016-09-28T09:04:14.179Z,8572
2016-09-28T09:05:23.847Z,8756
2016-09-28T09:06:33.522Z,8856
2016-09-28T09:07:43.228Z,9120
2016-09-28T09:08:52.902Z,8792
2016-09-28T09:10:02.869Z,9296
2016-09-28T09:11:12.857Z,9400
2016-09-28T09:12:23.088Z,9812
2016-09-28T09:13:33.096Z,9812
2016-09-28T09:14:42.772Z,9492
2016-09-28T09:15:53.071Z,9072
2016-09-28T09:17:03.052Z,8960
2016-09-28T09:18:13.353Z,9476
2016-09-28T09:19:23.026Z,9736
2016-09-28T09:20:32.430Z,11280
2016-09-28T09:21:42.441Z,11332
2016-09-28T09:22:52.441Z,11780
2016-09-28T09:24:02.120Z,11592
2016-09-28T09:25:12.110Z,12308
2016-09-28T09:26:22.092Z,11308
2016-09-28T09:27:32.078Z,10980
2016-09-28T09:28:42.370Z,10184
2016-09-28T09:29:52.672Z,9984
2016-09-28T09:31:02.982Z,9680
2016-09-28T09:32:13.288Z,8952
2016-09-28T09:33:23.285Z,8944
2016-09-28T09:34:33.577Z,8420
2016-09-28T09:35:43.883Z,8300
2016-09-28T09:36:54.169Z,8228
2016-09-28T09:38:04.461Z,8236
2016-09-28T09:39:14.454Z,8324
2016-09-28T09:40:24.457Z,7968
2016-09-28T09:41:34.436Z,7956
2016-09-28T09:42:44.746Z,8144
2016-09-28T09:43:55.051Z,8336
2016-09-28T09:45:04.727Z,8084
2016-09-28T09:46:14.717Z,8408
2016-09-28T09:47:24.696Z,8524
2016-09-28T09:48:34.689Z,8448
2016-09-28T09:49:44.686Z,8660
2016-09-28T09:50:54.971Z,8584
2016-09-28T09:52:04.658Z,8444
2016-09-28T09:53:14.019Z,7996
2016-09-28T09:54:24.005Z,7776
2016-09-28T09:55:34.312Z,7808
2016-09-28T09:56:44.625Z,8044
2016-09-28T09:57:54.930Z,8260
2016-09-28T09:59:05.223Z,7808
2016-09-28T10:00:14.910Z,7536
2016-09-28T10:01:24.934Z,7224
2016-09-28T10:02:35.247Z,6972
2016-09-28T10:03:45.539Z,6932
2016-09-28T10:04:55.213Z,6904
2016-09-28T10:06:05.210Z,7096
2016-09-28T10:07:15.529Z,7172
2016-09-28T10:08:25.229Z,7864
2016-09-28T10:09:35.543Z,8860
2016-09-28T10:10:46.095Z,9196
2016-09-28T10:11:56.067Z,8048
2016-09-28T10:13:06.371Z,8680
2016-09-28T10:14:16.370Z,7848
2016-09-28T10:15:26.724Z,9440
2016-09-28T10:16:37.045Z,7828
2016-09-28T10:17:47.365Z,8036
2016-09-28T10:18:57.719Z,8740
2016-09-28T10:20:07.741Z,8936
2016-09-28T10:21:17.751Z,8976
2016-09-28T10:22:28.071Z,8940
2016-09-28T10:23:38.614Z,8440
2016-09-28T10:24:48.318Z,9544
2016-09-28T10:25:58.324Z,10140
2016-09-28T10:27:08.019Z,9488
2016-09-28T10:28:18.027Z,9632
2016-09-28T10:29:28.333Z,11740
2016-09-28T10:30:38.315Z,10284
2016-09-28T10:31:47.716Z,9360
2016-09-28T10:32:57.708Z,8732
2016-09-28T10:34:07.710Z,10096
2016-09-28T10:35:18.023Z,8856
2016-09-28T10:36:27.728Z,8424
2016-09-28T10:37:38.032Z,8400
2016-09-28T10:38:47.727Z,8088
2016-09-28T10:39:57.719Z,7388
2016-09-28T10:41:07.721Z,7396
2016-09-28T10:42:17.709Z,6964
2016-09-28T10:43:27.788Z,6760
2016-09-28T10:44:38.106Z,6700
2016-09-28T10:45:48.420Z,6712
2016-09-28T10:46:58.722Z,7484
2016-09-28T10:48:08.427Z,7556
2016-09-28T10:49:18.452Z,7940
2016-09-28T10:50:28.454Z,8092
2016-09-28T10:51:38.454Z,6424
2016-09-28T10:52:48.147Z,5816
2016-09-28T10:53:58.139Z,5492
2016-09-28T10:55:08.136Z,5452
2016-09-28T10:56:18.432Z,5644
2016-09-28T10:57:28.423Z,7020
2016-09-28T10:58:38.416Z,7320
2016-09-28T10:59:48.732Z,4928
2016-09-28T11:00:58.713Z,5412
2016-09-28T11:02:08.720Z,7016
2016-09-28T11:03:18.728Z,7460
2016-09-28T11:04:28.734Z,7876
2016-09-28T11:05:39.068Z,8692
2016-09-28T11:06:49.407Z,8952
2016-09-28T11:07:59.729Z,9648
2016-09-28T11:09:09.723Z,10332
2016-09-28T11:10:20.029Z,9952
2016-09-28T11:11:30.350Z,10432
2016-09-28T11:12:40.677Z,10128
2016-09-28T11:13:50.684Z,10428
2016-09-28T11:15:00.816Z,10476
2016-09-28T11:16:11.026Z,10424
2016-09-28T11:17:21.443Z,10340
2016-09-28T11:18:31.786Z,9820
2016-09-28T11:19:42.138Z,8920
2016-09-28T11:20:52.184Z,9208
2016-09-28T11:22:02.522Z,8200
2016-09-28T11:23:12.866Z,7300
2016-09-28T11:24:22.877Z,8676
2016-09-28T11:25:32.877Z,8404
2016-09-28T11:26:42.851Z,7552
2016-09-28T11:27:52.538Z,8668
2016-09-28T11:29:02.534Z,8672
2016-09-28T11:30:12.843Z,10476
2016-09-28T11:31:23.147Z,10508
2016-09-28T11:32:32.829Z,10468
2016-09-28T11:33:43.055Z,10220
2016-09-28T11:34:53.054Z,10508
2016-09-28T11:36:03.370Z,10836
2016-09-28T11:37:13.370Z,10784
2016-09-28T11:38:23.367Z,10300
2016-09-28T11:39:33.378Z,10428
2016-09-28T11:40:43.076Z,10800
2016-09-28T11:41:53.378Z,10644
2016-09-28T11:43:03.392Z,10524
2016-09-28T11:44:13.073Z,9780
2016-09-28T11:45:22.775Z,9348
2016-09-28T11:46:33.085Z,9172
2016-09-28T11:47:42.764Z,9588
2016-09-28T11:48:53.066Z,9140
2016-09-28T11:50:03.387Z,9452
2016-09-28T11:51:13.410Z,9344
2016-09-28T11:52:23.709Z,9544
2016-09-28T11:53:34.012Z,8660
2016-09-28T11:54:44.027Z,8052
2016-09-28T11:55:54.338Z,8088
2016-09-28T11:57:04.026Z,6260
2016-09-28T11:58:14.019Z,5904
2016-09-28T11:59:23.997Z,4680
2016-09-28T12:00:34.297Z,3872
2016-09-28T12:01:44.597Z,3436
2016-09-28T12:02:54.886Z,3076
2016-09-28T12:04:05.176Z,3952
2016-09-28T12:05:15.192Z,5264
2016-09-28T12:06:25.497Z,7688
2016-09-28T12:07:35.481Z,8824
2016-09-28T12:08:45.797Z,9748
2016-09-28T12:09:55.789Z,9820
2016-09-28T12:11:05.785Z,10096
2016-09-28T12:12:15.472Z,10160
2016-09-28T12:13:25.785Z,10156
2016-09-28T12:14:35.151Z,10136
2016-09-28T12:15:44.829Z,10164
2016-09-28T12:16:55.110Z,9936
2016-09-28T12:18:05.101Z,10312
2016-09-28T12:19:15.413Z,10364
2016-09-28T12:20:25.434Z,10400
2016-09-28T12:21:35.726Z,10488
2016-09-28T12:22:45.708Z,10604
2016-09-28T12:23:56.005Z,10664
2016-09-28T12:25:05.691Z,10720
2016-09-28T12:26:15.397Z,10836
2016-09-28T12:27:25.396Z,10884
2016-09-28T12:28:35.400Z,10800
2016-09-28T12:29:45.432Z,10760
2016-09-28T12:30:55.727Z,10700
2016-09-28T12:32:05.725Z,10528
2016-09-28T12:33:15.708Z,10400
2016-09-28T12:34:25.105Z,10024
2016-09-28T12:35:35.119Z,9952
2016-09-28T12:36:45.432Z,9516
2016-09-28T12:37:55.115Z,9312
2016-09-28T12:39:05.422Z,8928
2016-09-28T12:40:15.719Z,9508
2016-09-28T12:41:26.029Z,9412
2016-09-28T12:42:36.351Z,9504
2016-09-28T12:43:46.678Z,9396
2016-09-28T12:44:56.366Z,9484
2016-09-28T12:46:06.351Z,8908
2016-09-28T12:47:16.039Z,8452
2016-09-28T12:48:26.342Z,8800
2016-09-28T12:49:36.333Z,8664
2016-09-28T12:50:46.324Z,7672
2016-09-28T12:51:56.019Z,7232
2016-09-28T12:53:06.311Z,8236
2016-09-28T12:54:16.016Z,8976
2016-09-28T12:55:26.315Z,8396
2016-09-28T12:56:36.347Z,8332
2016-09-28T12:57:46.667Z,7936
2016-09-28T12:58:56.977Z,8208
2016-09-28T13:00:06.976Z,8888
2016-09-28T13:01:16.964Z,9232
2016-09-28T13:02:27.269Z,8952
2016-09-28T13:03:37.261Z,9484
2016-09-28T13:04:47.554Z,9476
2016-09-28T13:05:57.868Z,9244
2016-09-28T13:07:08.177Z,8452
2016-09-28T13:08:18.185Z,8408
2016-09-28T13:09:27.865Z,8220
2016-09-28T13:10:38.177Z,8880
2016-09-28T13:11:48.196Z,8908
2016-09-28T13:12:58.497Z,8612
2016-09-28T13:14:08.808Z,8600
2016-09-28T13:15:19.109Z,8624
2016-09-28T13:16:28.795Z,8788
2016-09-28T13:17:39.076Z,8480
2016-09-28T13:18:49.081Z,8100
2016-09-28T13:19:59.078Z,7660
2016-09-28T13:21:09.282Z,7376
2016-09-28T13:22:19.285Z,7284
2016-09-28T13:23:29.270Z,7824
2016-09-28T13:24:39.253Z,7840
2016-09-28T13:25:48.624Z,8316
2016-09-28T13:26:58.938Z,8664
2016-09-28T13:28:09.244Z,8336
2016-09-28T13:29:19.525Z,8132
2016-09-28T13:30:29.836Z,8060
2016-09-28T13:31:39.528Z,7980
2016-09-28T13:32:49.845Z,8344
2016-09-28T13:33:59.836Z,8376
2016-09-28T13:35:10.163Z,7984
2016-09-28T13:36:19.880Z,7884
2016-09-28T13:37:30.173Z,7576
2016-09-28T13:38:40.165Z,7916
2016-09-28T13:39:50.446Z,7676
2016-09-28T13:41:00.130Z,8200
2016-09-28T13:42:10.120Z,8296
2016-09-28T13:43:20.432Z,8280
2016-09-28T13:44:30.720Z,8140
2016-09-28T13:45:40.738Z,8028
2016-09-28T13:46:51.043Z,8084
2016-09-28T13:48:01.347Z,7924
2016-09-28T13:49:11.348Z,7212
2016-09-28T13:50:21.339Z,7316
2016-09-28T13:51:31.627Z,7500
2016-09-28T13:52:41.659Z,7536
2016-09-28T13:53:51.971Z,7292
2016-09-28T13:55:01.665Z,7020
2016-09-28T13:56:11.959Z,6960
2016-09-28T13:57:21.974Z,6900
2016-09-28T13:58:31.664Z,6668
2016-09-28T13:59:41.976Z,6328
2016-09-28T14:00:51.976Z,6572
2016-09-28T14:02:02.287Z,6408
2016-09-28T14:03:11.985Z,6252
2016-09-28T14:04:22.276Z,6172
2016-09-28T14:05:32.277Z,6004
2016-09-28T14:06:42.580Z,5940
2016-09-28T14:07:52.901Z,5900
2016-09-28T14:09:02.903Z,5844
2016-09-28T14:10:13.220Z,5836
2016-09-28T14:11:23.238Z,5896
2016-09-28T14:12:33.542Z,5936
2016-09-28T14:13:43.220Z,5864
2016-09-28T14:14:53.224Z,5792
2016-09-28T14:16:02.939Z,5732
2016-09-28T14:17:12.934Z,5684
2016-09-28T14:18:22.922Z,5584
2016-09-28T14:19:33.250Z,5508
2016-09-28T14:20:43.556Z,5468
2016-09-28T14:21:53.537Z,5412
2016-09-28T14:23:03.551Z,5392
2016-09-28T14:24:13.862Z,5496
2016-09-28T14:25:23.255Z,5536
2016-09-28T14:26:32.933Z,5476
2016-09-28T14:27:43.226Z,5464
2016-09-28T14:28:53.522Z,5300
2016-09-28T14:30:03.813Z,5120
2016-09-28T14:31:13.813Z,5036
2016-09-28T14:32:24.113Z,4972
2016-09-28T14:33:34.452Z,5088
2016-09-28T14:34:44.753Z,4832
2016-09-28T14:35:55.059Z,4924
2016-09-28T14:37:05.368Z,4796
2016-09-28T14:38:15.672Z,4672
2016-09-28T14:39:25.662Z,4636
2016-09-28T14:40:35.644Z,4696
2016-09-28T14:41:45.941Z,4700
2016-09-28T14:42:56.264Z,4684
2016-09-28T14:44:06.250Z,4472
2016-09-28T14:45:16.560Z,4360
2016-09-28T14:46:26.882Z,4240
2016-09-28T14:47:36.865Z,4160
2016-09-28T14:48:46.877Z,4124
2016-09-28T14:49:56.868Z,3988
2016-09-28T14:51:06.251Z,3824
2016-09-28T14:52:16.566Z,3712
2016-09-28T14:53:26.267Z,3628
2016-09-28T14:54:35.939Z,3548
2016-09-28T14:55:46.251Z,3468
2016-09-28T14:56:56.563Z,3380
2016-09-28T14:58:06.544Z,3308
2016-09-28T14:59:16.559Z,3228
2016-09-28T15:00:26.551Z,3148
2016-09-28T15:01:36.833Z,3088
2016-09-28T15:02:46.815Z,3028
2016-09-28T15:03:57.100Z,2980
2016-09-28T15:05:07.109Z,2940
2016-09-28T15:06:17.096Z,2892
2016-09-28T15:07:27.112Z,2860
2016-09-28T15:08:37.415Z,2824
2016-09-28T15:09:47.723Z,2784
2016-09-28T15:10:58.025Z,2756
2016-09-28T15:12:07.696Z,2724
2016-09-28T15:13:18.026Z,2688
2016-09-28T15:14:28.329Z,2648
2016-09-28T15:15:38.612Z,2608
2016-09-28T15:16:48.587Z,2564
2016-09-28T15:17:58.889Z,2528
2016-09-28T15:19:08.890Z,2480
2016-09-28T15:20:18.570Z,2436
2016-09-28T15:21:28.879Z,2404
2016-09-28T15:22:38.896Z,2352
2016-09-28T15:23:48.257Z,2312
2016-09-28T15:24:58.279Z,2280
2016-09-28T15:26:07.957Z,2248
2016-09-28T15:27:17.947Z,2204
2016-09-28T15:28:27.928Z,2148
2016-09-28T15:29:38.225Z,2100
2016-09-28T15:30:48.526Z,2048
2016-09-28T15:31:58.213Z,2016
2016-09-28T15:33:07.889Z,1984
2016-09-28T15:34:18.183Z,1952
2016-09-28T15:35:27.550Z,1912
2016-09-28T15:36:36.918Z,1876
2016-09-28T15:37:46.587Z,1848
2016-09-28T15:38:56.890Z,1812
2016-09-28T15:40:06.895Z,1772
2016-09-28T15:41:16.584Z,1736
2016-09-28T15:42:26.575Z,1692
2016-09-28T15:43:36.262Z,1652
2016-09-28T15:44:46.565Z,1612
2016-09-28T15:45:57.093Z,1568
2016-09-28T15:47:07.404Z,1520
2016-09-28T15:48:17.736Z,1472
2016-09-28T15:49:28.031Z,1424
2016-09-28T15:50:38.018Z,1368
2016-09-28T15:51:48.026Z,1316
2016-09-28T15:52:58.051Z,1264
2016-09-28T15:54:08.350Z,1220
2016-09-28T15:55:18.653Z,1168
2016-09-28T15:56:28.980Z,1120
2016-09-28T15:57:39.286Z,1068
2016-09-28T15:58:49.312Z,1028
2016-09-28T15:59:59.289Z,988
2016-09-28T16:01:08.974Z,948
2016-09-28T16:02:19.288Z,916
2016-09-28T16:03:28.970Z,884
2016-09-28T16:04:38.962Z,844
2016-09-28T16:05:49.265Z,812
2016-09-28T16:06:59.265Z,776
2016-09-28T16:08:09.275Z,744
2016-09-28T16:09:19.270Z,712
2016-09-28T16:10:29.570Z,680
2016-09-28T16:11:39.572Z,648
2016-09-28T16:12:49.900Z,612
2016-09-28T16:13:59.895Z,580
2016-09-28T16:15:09.877Z,552
2016-09-28T16:16:19.874Z,520
2016-09-28T16:17:29.890Z,488
2016-09-28T16:18:40.181Z,460
2016-09-28T16:19:50.202Z,428
2016-09-28T16:21:00.197Z,404
2016-09-28T16:22:10.503Z,376
2016-09-28T16:23:20.516Z,348
2016-09-28T16:24:30.522Z,324
2016-09-28T16:25:40.513Z,296
2016-09-28T16:26:50.805Z,272